Time;durP1;ratioP1;P1;durP2;ratioP2;P2;SDS_P1;SDS_P2;PMS_P1;PMS_P2;Temp;Humidity;BMP_temperature;BMP_pressure;BME280_temperature;BME280_humidity;BME280_pressure;Samples;Min_cycle;Max_cycle;Signal;HPM_P1;HPM_P2
2023/06/16 00:00:11;;;;;;;11.80;7.83;;;19.30;1.00;;;;;;5051185;28;20220;-74
2023/06/16 00:02:41;;;;;;;11.13;7.93;;;19.40;1.00;;;;;;5052641;28;20196;-74
2023/06/16 00:05:09;;;;;;;10.47;7.30;;;19.40;1.00;;;;;;5045257;28;20437;-74
2023/06/16 00:07:36;;;;;;;12.50;8.23;;;19.40;1.00;;;;;;5028130;28;20530;-73
2023/06/16 00:10:06;;;;;;;10.43;7.40;;;19.40;1.00;;;;;;5045151;28;20454;-73
2023/06/16 00:12:32;;;;;;;15.60;8.20;;;19.40;1.00;;;;;;5041883;28;21010;-73
2023/06/16 00:14:57;;;;;;;13.63;7.80;;;;;;;;;;5052209;28;20510;-73
2023/06/16 00:17:23;;;;;;;13.50;7.70;;;19.50;1.00;;;;;;5041124;28;20396;-73
2023/06/16 00:19:49;;;;;;;9.10;7.30;;;19.40;1.00;;;;;;5030882;28;20291;-74
2023/06/16 00:22:15;;;;;;;10.23;7.10;;;19.50;1.00;;;;;;5031975;28;20221;-73
2023/06/16 00:24:41;;;;;;;10.93;7.43;;;19.60;1.00;;;;;;5045689;28;20844;-73
2023/06/16 00:27:06;;;;;;;11.30;7.37;;;19.80;1.00;;;;;;5038681;28;20671;-74
2023/06/16 00:29:32;;;;;;;11.73;7.20;;;;;;;;;;5051624;28;20306;-73
2023/06/16 00:31:58;;;;;;;11.30;7.67;;;19.60;1.00;;;;;;5040973;28;20723;-74
2023/06/16 00:34:24;;;;;;;10.30;7.37;;;;;;;;;;5047362;28;20189;-74
2023/06/16 00:36:50;;;;;;;14.53;7.63;;;19.40;1.00;;;;;;5051512;28;20192;-74
2023/06/16 00:39:15;;;;;;;12.07;7.30;;;19.40;1.00;;;;;;5042024;28;20208;-74
2023/06/16 00:41:41;;;;;;;11.17;7.30;;;19.40;1.00;;;;;;5043021;28;20189;-74
2023/06/16 00:44:07;;;;;;;11.00;7.37;;;;;;;;;;5040528;28;20190;-73
2023/06/16 00:46:35;;;;;;;11.60;7.57;;;19.30;1.00;;;;;;5041247;28;20220;-74
2023/06/16 00:49:01;;;;;;;13.07;7.37;;;19.30;1.00;;;;;;5044105;28;20208;-73
2023/06/16 00:51:28;;;;;;;12.70;7.60;;;19.20;1.00;;;;;;5029840;28;20436;-74
2023/06/16 00:53:54;;;;;;;13.03;7.40;;;19.10;1.00;;;;;;5036833;28;20424;-73
2023/06/16 00:56:21;;;;;;;9.17;7.33;;;19.10;1.00;;;;;;5030730;28;20420;-73
2023/06/16 00:58:50;;;;;;;10.40;7.70;;;18.90;1.00;;;;;;5043099;28;20462;-73
2023/06/16 01:01:16;;;;;;;8.93;7.20;;;;;;;;;;5037381;28;20452;-74
2023/06/16 01:03:41;;;;;;;9.67;7.50;;;19.00;1.00;;;;;;5041546;28;20471;-74
2023/06/16 01:06:31;;;;;;;10.13;7.00;;;18.90;1.00;;;;;;5037679;28;20471;-74
2023/06/16 01:09:08;;;;;;;11.10;7.50;;;18.90;1.00;;;;;;5034589;28;20205;-73
2023/06/16 01:11:43;;;;;;;11.67;7.60;;;18.70;1.00;;;;;;5045952;28;20945;-73
2023/06/16 01:14:20;;;;;;;14.17;8.03;;;18.60;1.00;;;;;;5045150;28;20814;-74
2023/06/16 01:16:47;;;;;;;13.53;8.13;;;18.60;1.00;;;;;;5051024;28;20418;-74
2023/06/16 01:19:28;;;;;;;16.73;7.67;;;18.30;1.00;;;;;;5040047;28;20986;-74
2023/06/16 01:22:04;;;;;;;16.53;8.53;;;18.30;1.00;;;;;;5043543;28;20463;-74
2023/06/16 01:24:33;;;;;;;13.00;8.13;;;18.20;1.00;;;;;;5038625;28;20443;-74
2023/06/16 01:27:00;;;;;;;12.73;8.10;;;18.10;1.00;;;;;;5042387;28;20471;-73
2023/06/16 01:29:27;;;;;;;10.87;8.30;;;18.30;1.00;;;;;;5041660;28;20460;-74
2023/06/16 01:31:58;;;;;;;11.83;8.23;;;17.90;1.00;;;;;;5042215;28;20428;-73
2023/06/16 01:34:24;;;;;;;10.73;8.30;;;;;;;;;;5051068;28;20424;-73
2023/06/16 01:36:51;;;;;;;10.60;8.63;;;17.70;1.00;;;;;;5039276;28;20765;-73
2023/06/16 01:39:18;;;;;;;11.57;8.37;;;17.60;1.00;;;;;;5041130;28;20479;-74
2023/06/16 01:41:45;;;;;;;14.23;8.53;;;17.50;1.00;;;;;;5039340;28;20467;-73
2023/06/16 01:44:11;;;;;;;11.50;8.93;;;;;;;;;;5038332;28;20442;-74
2023/06/16 01:46:37;;;;;;;17.03;9.30;;;;;;;;;;5040392;28;20468;-74
2023/06/16 01:49:03;;;;;;;10.60;9.30;;;;;;;;;;5042613;28;20227;-73
2023/06/16 01:51:29;;;;;;;16.77;8.90;;;;;;;;;;5049262;28;20432;-74
2023/06/16 01:53:56;;;;;;;8.83;7.87;;;17.30;1.00;;;;;;5040148;28;20514;-74
2023/06/16 01:56:22;;;;;;;9.63;7.87;;;17.30;1.00;;;;;;5033368;28;20481;-73
2023/06/16 01:58:48;;;;;;;11.77;8.30;;;;;;;;;;5037817;28;20522;-74
2023/06/16 02:01:25;;;;;;;9.80;8.20;;;17.20;1.00;;;;;;5037185;28;20193;-74
2023/06/16 02:03:56;;;;;;;15.80;8.37;;;17.40;1.00;;;;;;5044107;28;20488;-74
2023/06/16 02:06:26;;;;;;;12.93;8.40;;;17.00;1.00;;;;;;5040691;28;20467;-74
2023/06/16 02:08:55;;;;;;;13.00;8.57;;;16.90;1.00;;;;;;5032648;28;20462;-74
2023/06/16 02:11:21;;;;;;;9.70;8.37;;;;;;;;;;5049879;28;20498;-74
2023/06/16 02:13:49;;;;;;;11.70;8.60;;;16.80;1.00;;;;;;5050042;28;20419;-74
2023/06/16 02:16:14;;;;;;;15.83;8.53;;;16.70;1.00;;;;;;5043766;28;20445;-74
2023/06/16 02:18:40;;;;;;;11.00;8.00;;;16.60;1.00;;;;;;5037157;28;20818;-74
2023/06/16 02:21:05;;;;;;;10.77;8.10;;;16.60;1.00;;;;;;5028809;28;20186;-75
2023/06/16 02:23:31;;;;;;;13.30;8.00;;;;;;;;;;5038023;28;20304;-74
2023/06/16 02:25:57;;;;;;;9.60;7.60;;;16.50;1.00;;;;;;5038923;28;20347;-74
2023/06/16 02:28:22;;;;;;;8.40;7.50;;;16.30;1.00;;;;;;5038945;28;20593;-74
2023/06/16 02:30:48;;;;;;;14.80;6.93;;;;;;;;;;5049192;28;20671;-75
2023/06/16 02:33:15;;;;;;;13.53;7.60;;;16.20;1.00;;;;;;5043102;28;20185;-74
2023/06/16 02:35:41;;;;;;;16.50;7.70;;;;;;;;;;5039362;28;20184;-74
2023/06/16 02:38:07;;;;;;;13.93;7.90;;;16.10;1.00;;;;;;5034228;28;20489;-74
2023/06/16 02:40:33;;;;;;;11.53;7.37;;;;;;;;;;5060950;28;20560;-74
2023/06/16 02:42:58;;;;;;;14.03;7.87;;;16.10;1.00;;;;;;5049803;28;20416;-74
2023/06/16 02:45:24;;;;;;;8.90;7.37;;;16.10;1.00;;;;;;5044700;28;20220;-74
2023/06/16 02:47:50;;;;;;;12.97;7.97;;;;;;;;;;5035005;28;20268;-74
2023/06/16 02:50:16;;;;;;;10.70;7.90;;;;;;;;;;5048957;28;20598;-73
2023/06/16 02:52:42;;;;;;;11.80;8.10;;;16.00;1.00;;;;;;5051808;28;20185;-74
2023/06/16 02:55:13;;;;;;;14.33;7.70;;;15.90;1.00;;;;;;5033301;28;20174;-74
2023/06/16 02:57:39;;;;;;;15.20;7.33;;;;;;;;;;5029897;28;20302;-73
2023/06/16 03:00:09;;;;;;;13.40;7.30;;;;;;;;;;5051335;28;20479;-73
2023/06/16 03:02:35;;;;;;;8.93;7.43;;;;;;;;;;5042349;28;20954;-74
2023/06/16 03:05:03;;;;;;;12.00;7.87;;;15.90;1.00;;;;;;5036536;28;20801;-73
2023/06/16 03:07:34;;;;;;;9.40;7.63;;;15.80;1.00;;;;;;5049599;28;20423;-74
2023/06/16 03:10:07;;;;;;;13.43;7.83;;;15.70;1.00;;;;;;5028861;28;20450;-74
2023/06/16 03:12:32;;;;;;;11.20;7.37;;;15.60;1.00;;;;;;5042700;28;20454;-73
2023/06/16 03:14:58;;;;;;;10.87;7.93;;;15.50;1.00;;;;;;5042050;28;20460;-73
2023/06/16 03:17:23;;;;;;;13.50;8.03;;;15.40;1.00;;;;;;5030907;28;20193;-74
2023/06/16 03:19:49;;;;;;;17.27;6.97;;;15.30;1.00;;;;;;5035332;28;20208;-74
2023/06/16 03:22:15;;;;;;;14.93;7.70;;;15.20;1.00;;;;;;5043954;28;20186;-73
2023/06/16 03:24:43;;;;;;;16.00;7.80;;;15.20;1.00;;;;;;5043284;28;20523;-73
2023/06/16 03:27:09;;;;;;;13.00;7.40;;;17.00;1.00;;;;;;5030054;28;20186;-74
2023/06/16 03:29:35;;;;;;;9.50;7.27;;;15.10;1.00;;;;;;5042197;28;20456;-74
2023/06/16 03:32:01;;;;;;;13.50;7.77;;;15.10;1.00;;;;;;5038022;28;20435;-74
2023/06/16 03:34:29;;;;;;;18.97;7.70;;;15.10;1.00;;;;;;5046828;28;20447;-73
2023/06/16 03:36:56;;;;;;;15.00;7.60;;;15.00;1.00;;;;;;5046832;28;20263;-73
2023/06/16 03:39:21;;;;;;;20.50;7.43;;;14.90;1.00;;;;;;5030739;28;20524;-73
2023/06/16 03:41:47;;;;;;;15.17;7.97;;;;;;;;;;5049070;28;20798;-73
2023/06/16 03:44:13;;;;;;;9.03;7.20;;;14.90;1.00;;;;;;5050376;28;20187;-74
2023/06/16 03:46:38;;;;;;;11.77;7.27;;;15.10;1.00;;;;;;5038911;28;20512;-73
2023/06/16 03:49:04;;;;;;;13.50;7.57;;;14.90;1.00;;;;;;5048904;28;20214;-73
2023/06/16 03:51:30;;;;;;;9.17;7.03;;;;;;;;;;5038352;28;20185;-73
2023/06/16 03:53:55;;;;;;;11.03;7.67;;;14.90;1.00;;;;;;5042899;28;20182;-73
2023/06/16 03:56:21;;;;;;;11.43;7.67;;;14.80;1.00;;;;;;5028643;28;20304;-73
2023/06/16 03:58:48;;;;;;;12.13;7.33;;;;;;;;;;5040182;28;20217;-73
2023/06/16 04:01:15;;;;;;;11.77;7.57;;;15.00;1.00;;;;;;5044108;28;20735;-74
2023/06/16 04:03:40;;;;;;;12.13;7.47;;;15.10;1.00;;;;;;5048002;28;20509;-73
2023/06/16 04:06:06;;;;;;;17.93;7.60;;;;;;;;;;5045790;28;20432;-74
2023/06/16 04:08:32;;;;;;;9.33;6.37;;;15.10;1.00;;;;;;5044736;28;20212;-74
2023/06/16 04:10:58;;;;;;;11.20;7.60;;;15.10;1.00;;;;;;5045594;28;20494;-73
2023/06/16 04:13:27;;;;;;;13.23;7.37;;;15.00;1.00;;;;;;5039711;28;20201;-74
2023/06/16 04:15:52;;;;;;;10.70;7.00;;;15.00;1.00;;;;;;5045986;28;20831;-73
2023/06/16 04:18:18;;;;;;;13.07;8.03;;;15.00;1.00;;;;;;5035458;28;20455;-74
2023/06/16 04:20:43;;;;;;;14.03;7.90;;;15.00;1.00;;;;;;5047884;28;20231;-74
2023/06/16 04:23:09;;;;;;;19.40;8.90;;;15.20;1.00;;;;;;5047233;28;20192;-73
2023/06/16 04:25:37;;;;;;;14.20;7.97;;;15.30;1.00;;;;;;5028088;28;20350;-74
2023/06/16 04:28:02;;;;;;;14.40;8.47;;;15.50;1.00;;;;;;5038031;28;20189;-74
2023/06/16 04:30:30;;;;;;;14.17;7.83;;;;;;;;;;5045631;28;20439;-74
2023/06/16 04:32:59;;;;;;;14.33;7.93;;;15.60;1.00;;;;;;5035185;28;20201;-74
2023/06/16 04:35:31;;;;;;;12.83;8.33;;;15.70;1.00;;;;;;5032219;28;20490;-74
2023/06/16 04:37:57;;;;;;;14.07;8.50;;;15.80;1.00;;;;;;5045522;28;20464;-73
2023/06/16 04:40:26;;;;;;;9.17;7.27;;;15.70;1.00;;;;;;5046764;28;20470;-74
2023/06/16 04:42:52;;;;;;;9.30;7.70;;;15.80;1.00;;;;;;5045996;28;20542;-74
2023/06/16 04:45:18;;;;;;;13.93;8.03;;;;;;;;;;5051618;28;20481;-74
2023/06/16 04:47:44;;;;;;;11.43;8.10;;;;;;;;;;5034983;28;20288;-74
2023/06/16 04:50:10;;;;;;;11.00;7.80;;;16.00;1.00;;;;;;5046779;28;20439;-74
2023/06/16 04:52:37;;;;;;;8.87;7.40;;;15.90;1.00;;;;;;5031366;28;20428;-74
2023/06/16 04:55:04;;;;;;;17.70;8.33;;;16.50;1.00;;;;;;5038681;28;20427;-74
2023/06/16 04:57:38;;;;;;;8.10;7.30;;;16.20;1.00;;;;;;5043403;28;20429;-74
2023/06/16 05:00:06;;;;;;;12.90;8.30;;;16.50;1.00;;;;;;5046335;28;20566;-75
2023/06/16 05:02:32;;;;;;;9.27;7.23;;;16.30;1.00;;;;;;5032416;28;20178;-74
2023/06/16 05:04:59;;;;;;;10.17;8.27;;;;;;;;;;5047545;28;20444;-74
2023/06/16 05:07:24;;;;;;;8.60;7.47;;;16.60;1.00;;;;;;5046483;28;20427;-75
2023/06/16 05:09:50;;;;;;;16.23;8.27;;;16.60;1.00;;;;;;5047567;28;20455;-74
2023/06/16 05:12:15;;;;;;;13.43;7.90;;;16.60;1.00;;;;;;5037960;28;20253;-74
2023/06/16 05:14:41;;;;;;;8.00;7.20;;;17.20;1.00;;;;;;5039267;28;20203;-73
2023/06/16 05:17:06;;;;;;;10.00;8.23;;;18.40;1.00;;;;;;5039050;28;20553;-74
2023/06/16 05:19:32;;;;;;;10.97;8.40;;;;;;;;;;5047005;28;20706;-74
2023/06/16 05:21:59;;;;;;;14.67;8.43;;;16.80;1.00;;;;;;5040175;28;20615;-74
2023/06/16 05:24:24;;;;;;;13.80;8.50;;;16.90;1.00;;;;;;5035857;28;20436;-74
2023/06/16 05:26:51;;;;;;;14.67;9.10;;;16.90;1.00;;;;;;5032508;28;20432;-74
2023/06/16 05:29:16;;;;;;;13.67;8.60;;;18.60;1.00;;;;;;5045620;28;20218;-74
2023/06/16 05:31:42;;;;;;;12.73;8.50;;;17.20;1.00;;;;;;5036363;28;20443;-74
2023/06/16 05:34:07;;;;;;;13.93;9.40;;;17.40;1.00;;;;;;5040949;28;20201;-75
2023/06/16 05:36:35;;;;;;;13.23;9.30;;;17.40;1.00;;;;;;5028972;28;20357;-74
2023/06/16 05:39:01;;;;;;;11.00;9.00;;;;;;;;;;5038785;28;20209;-74
2023/06/16 05:41:28;;;;;;;19.37;11.20;;;;;;;;;;5034609;28;20486;-74
2023/06/16 05:43:55;;;;;;;16.17;9.93;;;17.70;1.00;;;;;;5026467;28;20457;-74
2023/06/16 05:46:21;;;;;;;15.20;10.20;;;17.70;1.00;;;;;;5032733;28;20444;-75
2023/06/16 05:48:46;;;;;;;13.27;10.37;;;17.80;1.00;;;;;;5033727;28;20536;-75
2023/06/16 05:51:12;;;;;;;15.90;10.20;;;;;;;;;;5043593;28;20219;-76
2023/06/16 05:53:38;;;;;;;16.03;10.50;;;17.90;1.00;;;;;;5038550;28;20229;-75
2023/06/16 05:56:03;;;;;;;13.70;11.10;;;17.90;1.00;;;;;;5040812;28;20201;-75
2023/06/16 05:58:29;;;;;;;13.17;9.93;;;18.00;1.00;;;;;;5046660;28;20239;-75
2023/06/16 06:00:54;;;;;;;14.60;11.37;;;17.50;1.00;;;;;;5042677;28;20192;-75
2023/06/16 06:03:20;;;;;;;14.40;10.60;;;19.40;1.00;;;;;;5042219;28;20176;-74
2023/06/16 06:05:47;;;;;;;12.93;10.67;;;;;;;;;;5047188;28;20189;-75
2023/06/16 06:08:13;;;;;;;12.40;10.17;;;18.60;1.00;;;;;;5050698;28;20655;-75
2023/06/16 06:10:38;;;;;;;11.73;9.80;;;18.50;1.00;;;;;;5043547;28;20481;-74
2023/06/16 06:13:04;;;;;;;13.17;9.53;;;18.70;1.00;;;;;;5030641;28;20174;-75
2023/06/16 06:15:30;;;;;;;17.13;10.30;;;18.80;1.00;;;;;;5028892;28;20196;-75
2023/06/16 06:17:56;;;;;;;13.03;10.70;;;;;;;;;;5036060;28;20176;-75
2023/06/16 06:20:21;;;;;;;14.30;9.40;;;18.90;1.00;;;;;;5042096;28;20223;-74
2023/06/16 06:22:47;;;;;;;13.20;9.63;;;19.10;1.00;;;;;;5049913;28;20178;-74
2023/06/16 06:25:13;;;;;;;16.33;9.90;;;19.50;1.00;;;;;;5040429;28;20193;-74
2023/06/16 06:27:39;;;;;;;19.67;9.90;;;19.20;1.00;;;;;;5025444;28;20680;-74
2023/06/16 06:30:06;;;;;;;15.07;9.97;;;19.30;1.00;;;;;;5036782;28;20794;-74
2023/06/16 06:32:31;;;;;;;14.87;9.17;;;19.40;1.00;;;;;;5040198;28;20440;-74
2023/06/16 06:34:57;;;;;;;15.83;9.53;;;20.10;1.00;;;;;;5028536;28;20443;-75
2023/06/16 06:37:29;;;;;;;15.47;9.73;;;19.70;1.00;;;;;;5022557;28;20716;-74
2023/06/16 06:39:55;;;;;;;21.87;10.27;;;20.30;1.00;;;;;;5036902;28;20223;-74
2023/06/16 06:42:21;;;;;;;20.10;9.50;;;19.80;1.00;;;;;;5047350;28;20530;-74
2023/06/16 06:44:47;;;;;;;17.13;9.67;;;;;;;;;;5044012;28;20181;-74
2023/06/16 06:47:12;;;;;;;19.60;9.60;;;20.00;1.00;;;;;;5018986;28;20938;-73
2023/06/16 06:49:39;;;;;;;11.73;8.60;;;;;;;;;;5024173;28;20683;-74
2023/06/16 06:52:05;;;;;;;15.63;9.20;;;20.10;1.00;;;;;;5028154;28;20200;-73
2023/06/16 06:54:30;;;;;;;14.07;9.10;;;20.20;1.00;;;;;;5027650;28;20443;-71
2023/06/16 06:56:56;;;;;;;12.67;8.80;;;20.30;1.00;;;;;;5027634;28;20680;-73
2023/06/16 06:59:21;;;;;;;17.17;9.43;;;20.40;1.00;;;;;;5022403;28;20248;-74
2023/06/16 07:01:47;;;;;;;16.67;9.80;;;;;;;;;;5023129;28;20181;-74
2023/06/16 07:04:13;;;;;;;10.83;8.67;;;20.70;1.00;;;;;;5037240;28;20602;-75
2023/06/16 07:06:39;;;;;;;14.13;9.50;;;;;;;;;;5029774;28;20691;-74
2023/06/16 07:09:05;;;;;;;13.30;9.13;;;20.90;1.00;;;;;;5034879;28;20706;-74
2023/06/16 07:11:30;;;;;;;17.97;9.40;;;21.20;1.00;;;;;;5037025;28;20431;-74
2023/06/16 07:13:56;;;;;;;13.63;9.87;;;21.20;1.00;;;;;;5041620;28;20233;-74
2023/06/16 07:16:21;;;;;;;11.30;8.50;;;21.40;1.00;;;;;;5041807;28;20225;-75
2023/06/16 07:18:47;;;;;;;14.10;9.20;;;21.50;1.00;;;;;;5033437;28;20727;-74
2023/06/16 07:21:13;;;;;;;13.37;7.97;;;21.50;1.00;;;;;;5043835;28;20291;-74
2023/06/16 07:23:39;;;;;;;11.70;8.43;;;;;;;;;;5031721;28;20185;-75
2023/06/16 07:26:04;;;;;;;11.57;8.10;;;21.90;1.00;;;;;;5062813;28;20189;-74
2023/06/16 07:28:30;;;;;;;11.13;8.20;;;;;;;;;;5030822;28;20629;-74
2023/06/16 07:30:56;;;;;;;11.97;7.70;;;;;;;;;;5033343;28;20279;-74
2023/06/16 07:33:22;;;;;;;12.03;7.50;;;;;;;;;;5035706;28;20443;-74
2023/06/16 07:35:48;;;;;;;12.40;8.20;;;;;;;;;;5048362;28;20565;-74
2023/06/16 07:38:15;;;;;;;14.73;8.00;;;23.10;1.00;;;;;;5046796;28;20192;-75
2023/06/16 07:40:41;;;;;;;13.53;7.50;;;;;;;;;;5049855;28;20411;-76
2023/06/16 07:43:07;;;;;;;12.13;7.63;;;;;;;;;;5033082;28;20470;-74
2023/06/16 07:45:34;;;;;;;11.10;7.07;;;23.60;1.00;;;;;;5030122;28;20861;-74
2023/06/16 07:48:00;;;;;;;14.37;8.23;;;24.10;1.00;;;;;;5029471;28;20440;-75
2023/06/16 07:50:25;;;;;;;10.47;6.20;;;24.10;1.00;;;;;;5046443;28;20427;-75
2023/06/16 07:52:51;;;;;;;9.87;7.03;;;22.60;1.00;;;;;;5042269;28;20458;-75
2023/06/16 07:55:16;;;;;;;11.20;6.80;;;24.30;1.00;;;;;;5030780;28;20183;-75
2023/06/16 07:57:42;;;;;;;13.73;6.63;;;24.40;1.00;;;;;;5031579;28;20691;-75
2023/06/16 08:00:11;;;;;;;14.97;7.07;;;24.70;1.00;;;;;;5030239;28;20242;-75
2023/06/16 08:02:38;;;;;;;8.70;6.40;;;24.90;1.00;;;;;;5040446;28;20184;-75
2023/06/16 08:05:04;;;;;;;13.57;5.97;;;;;;;;;;5045366;28;20439;-74
2023/06/16 08:07:30;;;;;;;12.23;6.23;;;25.40;1.00;;;;;;5037823;28;20431;-75
2023/06/16 08:09:55;;;;;;;12.70;6.57;;;25.90;1.00;;;;;;5034810;28;20734;-74
2023/06/16 08:12:21;;;;;;;8.47;5.80;;;25.60;1.00;;;;;;5044292;28;20185;-74
2023/06/16 08:14:47;;;;;;;15.20;6.00;;;;;;;;;;5034782;28;20185;-74
2023/06/16 08:17:13;;;;;;;11.27;6.00;;;;;;;;;;5046478;28;20212;-75
2023/06/16 08:19:38;;;;;;;11.80;6.37;;;26.20;1.00;;;;;;5043670;28;20208;-74
2023/06/16 08:22:05;;;;;;;11.17;6.03;;;28.30;1.00;;;;;;5054551;28;20538;-74
2023/06/16 08:24:30;;;;;;;11.20;5.70;;;26.50;1.00;;;;;;5045013;28;20722;-75
2023/06/16 08:26:57;;;;;;;12.93;6.00;;;;;;;;;;5047654;28;20515;-76
2023/06/16 08:29:22;;;;;;;9.73;6.43;;;26.30;1.00;;;;;;5050055;28;20200;-75
2023/06/16 08:31:49;;;;;;;9.20;5.83;;;;;;;;;;5035762;28;20235;-75
2023/06/16 08:34:14;;;;;;;11.00;5.77;;;26.70;1.00;;;;;;5049211;28;20211;-76
2023/06/16 08:36:40;;;;;;;13.93;5.90;;;;;;;;;;5042718;28;20209;-75
2023/06/16 08:39:07;;;;;;;9.40;5.87;;;;;;;;;;5035400;28;20201;-76
2023/06/16 08:41:36;;;;;;;17.97;6.10;;;27.40;1.00;;;;;;5039561;28;20222;-75
2023/06/16 08:44:03;;;;;;;9.50;5.33;;;27.90;1.00;;;;;;5039286;28;20201;-76
2023/06/16 08:46:30;;;;;;;15.80;6.03;;;24.40;1.00;;;;;;5045250;28;20207;-76
2023/06/16 08:48:56;;;;;;;14.53;6.23;;;28.00;1.00;;;;;;5043237;28;20204;-76
2023/06/16 08:51:25;;;;;;;12.73;6.00;;;28.30;1.00;;;;;;5037943;28;20181;-75
2023/06/16 08:53:54;;;;;;;9.33;5.90;;;27.90;1.00;;;;;;5040007;28;20220;-75
2023/06/16 08:56:20;;;;;;;10.77;5.60;;;27.90;1.00;;;;;;5039182;28;20565;-75
2023/06/16 08:58:47;;;;;;;7.03;5.50;;;27.80;1.00;;;;;;5034786;28;20216;-75
2023/06/16 09:01:14;;;;;;;10.33;5.33;;;27.90;1.00;;;;;;5030943;28;20185;-74
2023/06/16 09:03:41;;;;;;;15.40;7.47;;;28.20;1.00;;;;;;5031961;28;20194;-73
2023/06/16 09:06:10;;;;;;;16.13;7.20;;;29.10;1.00;;;;;;5030395;28;20184;-75
2023/06/16 09:08:36;;;;;;;12.20;5.77;;;29.10;1.00;;;;;;5035764;28;20683;-75
2023/06/16 09:11:07;;;;;;;11.70;6.70;;;29.80;1.00;;;;;;5042464;28;20184;-75
2023/06/16 09:13:32;;;;;;;9.52;6.00;;;30.70;1.00;;;;;;5047238;28;20333;-75
2023/06/16 09:15:59;;;;;;;8.07;5.50;;;31.30;1.00;;;;;;5039300;28;20304;-75
2023/06/16 09:18:36;;;;;;;10.82;6.07;;;32.10;1.00;;;;;;5034996;28;20280;-76
2023/06/16 09:21:04;;;;;;;12.25;5.70;;;33.00;1.00;;;;;;5035250;28;20656;-76
2023/06/16 09:23:31;;;;;;;13.35;6.43;;;33.00;1.00;;;;;;5032563;28;20563;-75
2023/06/16 09:25:57;;;;;;;9.98;5.68;;;33.80;1.00;;;;;;5030751;28;20667;-75
2023/06/16 09:28:36;;;;;;;12.43;5.82;;;34.70;1.00;;;;;;5045712;28;20220;-74
2023/06/16 09:31:04;;;;;;;8.25;5.50;;;35.70;1.00;;;;;;5044454;28;20188;-75
2023/06/16 09:33:30;;;;;;;7.65;5.28;;;36.20;1.00;;;;;;5038685;28;20193;-74
2023/06/16 09:35:57;;;;;;;9.88;5.43;;;36.00;1.00;;;;;;5038219;28;20215;-73
2023/06/16 09:38:23;;;;;;;8.30;5.00;;;;;;;;;;5046436;28;20668;-74
2023/06/16 09:40:49;;;;;;;11.95;5.55;;;;;;;;;;5050548;28;20209;-74
2023/06/16 09:43:15;;;;;;;8.10;5.40;;;36.60;1.00;;;;;;5033031;28;20184;-75
2023/06/16 09:45:41;;;;;;;7.22;5.75;;;;;;;;;;5032929;28;20493;-75
2023/06/16 09:48:10;;;;;;;9.93;5.40;;;38.00;1.00;;;;;;5043608;28;20184;-74
2023/06/16 09:50:37;;;;;;;9.00;5.75;;;38.00;1.00;;;;;;5048366;28;20181;-74
2023/06/16 09:53:07;;;;;;;9.88;5.28;;;37.80;1.00;;;;;;5044555;28;20184;-75
2023/06/16 09:55:39;;;;;;;6.72;5.05;;;38.10;1.00;;;;;;5038361;28;20231;-76
2023/06/16 09:58:06;;;;;;;12.57;4.85;;;38.90;1.00;;;;;;5035287;28;20235;-75
2023/06/16 10:00:33;;;;;;;14.55;5.32;;;38.90;1.00;;;;;;5042939;28;20177;-75
2023/06/16 10:03:00;;;;;;;15.45;5.65;;;39.10;1.00;;;;;;5043482;28;20184;-74
2023/06/16 10:05:28;;;;;;;8.00;4.75;;;37.80;1.00;;;;;;5041670;28;20180;-75
2023/06/16 10:07:57;;;;;;;7.15;5.25;;;38.60;1.00;;;;;;5048395;28;20558;-76
2023/06/16 10:10:29;;;;;;;10.82;5.60;;;38.60;1.00;;;;;;5036767;28;20663;-75
2023/06/16 10:12:55;;;;;;;10.40;5.18;;;38.60;1.00;;;;;;5036805;28;20189;-74
2023/06/16 10:15:27;;;;;;;8.73;5.05;;;38.70;1.00;;;;;;5049075;28;20181;-74
2023/06/16 10:18:03;;;;;;;7.22;5.53;;;39.40;1.00;;;;;;5033553;28;20213;-75
2023/06/16 10:20:33;;;;;;;8.23;5.10;;;39.40;1.00;;;;;;5036007;28;20250;-75
2023/06/16 10:23:03;;;;;;;12.00;5.18;;;39.70;1.00;;;;;;5038588;28;20196;-75
2023/06/16 10:25:29;;;;;;;9.57;5.35;;;;;;;;;;5043985;28;20188;-75
2023/06/16 10:27:55;;;;;;;9.65;5.25;;;;;;;;;;5037938;28;20178;-75
2023/06/16 10:30:23;;;;;;;14.50;5.43;;;38.60;1.00;;;;;;5030727;28;20258;-75
2023/06/16 10:32:49;;;;;;;10.98;5.40;;;39.50;1.00;;;;;;5029989;28;20199;-75
2023/06/16 10:35:17;;;;;;;9.30;5.38;;;39.50;1.00;;;;;;5049322;28;20184;-76
2023/06/16 10:37:43;;;;;;;12.95;5.53;;;40.00;1.00;;;;;;5047214;28;20540;-74
2023/06/16 10:40:12;;;;;;;7.18;5.55;;;40.10;1.00;;;;;;5043996;28;20259;-75
2023/06/16 10:42:40;;;;;;;8.27;5.15;;;40.20;1.00;;;;;;5045181;28;20188;-75
2023/06/16 10:45:29;;;;;;;8.73;5.28;;;40.40;1.00;;;;;;5033739;28;20193;-76
2023/06/16 10:47:55;;;;;;;10.73;5.28;;;39.30;1.00;;;;;;5031847;28;20181;-75
2023/06/16 10:50:35;;;;;;;8.00;5.93;;;37.20;1.00;;;;;;5032421;28;20197;-75
2023/06/16 10:53:14;;;;;;;8.10;5.00;;;35.40;1.00;;;;;;5031017;28;20203;-75
2023/06/16 10:55:42;;;;;;;9.38;5.70;;;34.50;1.00;;;;;;5027613;28;20191;-75
2023/06/16 10:58:16;;;;;;;9.13;6.38;;;36.70;1.00;;;;;;5043523;28;20208;-77
2023/06/16 11:00:58;;;;;;;11.55;6.70;;;36.80;1.00;;;;;;5039766;28;20183;-75
2023/06/16 11:03:35;;;;;;;6.25;5.22;;;37.70;1.00;;;;;;5052755;28;20735;-76
2023/06/16 11:06:02;;;;;;;36.78;13.90;;;38.40;1.00;;;;;;5036334;28;20192;-78
2023/06/16 11:08:28;;;;;;;31.55;13.93;;;39.20;1.00;;;;;;5045116;28;20215;-78
2023/06/16 11:11:02;;;;;;;11.88;6.43;;;39.80;1.00;;;;;;5035319;28;20185;-77
2023/06/16 11:13:38;;;;;;;20.02;7.60;;;39.90;1.00;;;;;;5045294;28;20187;-76
2023/06/16 11:16:04;;;;;;;12.48;5.97;;;38.40;1.00;;;;;;5050416;28;20710;-77
2023/06/16 11:18:33;;;;;;;10.90;6.47;;;37.50;1.00;;;;;;5042826;28;20212;-77
2023/06/16 11:21:01;;;;;;;11.48;5.82;;;37.80;1.00;;;;;;5048823;28;20267;-76
2023/06/16 11:23:26;;;;;;;12.35;6.30;;;39.20;1.00;;;;;;5036538;28;20177;-77
2023/06/16 11:26:01;;;;;;;11.38;6.35;;;40.30;1.00;;;;;;5035146;28;20189;-77
2023/06/16 11:28:26;;;;;;;7.32;4.88;;;39.80;1.00;;;;;;5039892;28;20658;-76
2023/06/16 11:30:53;;;;;;;7.97;5.18;;;36.60;1.00;;;;;;5040847;28;20208;-75
2023/06/16 11:33:21;;;;;;;10.18;5.82;;;35.40;1.00;;;;;;5044588;28;20185;-77
2023/06/16 11:35:47;;;;;;;8.50;5.90;;;35.90;1.00;;;;;;5042817;28;20216;-76
2023/06/16 11:38:14;;;;;;;7.22;5.03;;;36.60;1.00;;;;;;5052398;28;20181;-77
2023/06/16 11:40:41;;;;;;;10.30;5.60;;;36.50;1.00;;;;;;5070978;28;20184;-76
2023/06/16 11:43:07;;;;;;;7.55;5.78;;;35.50;1.00;;;;;;5073824;28;20185;-76
2023/06/16 11:45:37;;;;;;;7.22;5.38;;;35.80;1.00;;;;;;5055750;28;20196;-76
2023/06/16 11:48:05;;;;;;;8.32;5.10;;;38.90;1.00;;;;;;5056218;28;20180;-76
2023/06/16 11:50:31;;;;;;;7.68;5.18;;;38.90;1.00;;;;;;5052973;28;20231;-76
2023/06/16 11:52:57;;;;;;;7.70;5.45;;;39.80;1.00;;;;;;5051034;28;20186;-77
2023/06/16 11:55:23;;;;;;;8.40;4.80;;;40.70;1.00;;;;;;5041388;28;20177;-75
2023/06/16 11:57:49;;;;;;;12.63;5.05;;;41.40;1.00;;;;;;5043993;28;20207;-75
2023/06/16 12:00:16;;;;;;;5.82;4.75;;;41.60;1.00;;;;;;5042711;28;20197;-76
2023/06/16 12:02:45;;;;;;;5.97;4.72;;;41.30;1.00;;;;;;5047615;28;20183;-74
2023/06/16 12:05:19;;;;;;;5.95;4.93;;;39.80;1.00;;;;;;5035818;28;20189;-74
2023/06/16 12:07:46;;;;;;;7.20;5.05;;;38.30;1.00;;;;;;5040164;28;20573;-77
2023/06/16 12:10:11;;;;;;;8.43;5.00;;;38.60;1.00;;;;;;5038260;28;20213;-77
2023/06/16 12:12:38;;;;;;;7.57;4.70;;;40.10;1.00;;;;;;5034322;28;20181;-75
2023/06/16 12:15:04;;;;;;;6.78;4.97;;;40.80;1.00;;;;;;5034500;28;20196;-78
2023/06/16 12:17:33;;;;;;;7.35;4.75;;;41.50;1.00;;;;;;5031876;28;20207;-75
2023/06/16 12:20:01;;;;;;;6.72;5.18;;;42.40;1.00;;;;;;5044844;28;20205;-75
2023/06/16 12:22:35;;;;;;;8.77;5.07;;;43.10;1.00;;;;;;5043275;28;20227;-74
2023/06/16 12:25:00;;;;;;;13.23;4.85;;;43.10;1.00;;;;;;5041770;28;20208;-78
2023/06/16 12:27:26;;;;;;;6.07;4.95;;;;;;;;;;5026628;28;20181;-75
2023/06/16 12:29:59;;;;;;;6.82;4.68;;;43.30;1.00;;;;;;5033750;28;20201;-75
2023/06/16 12:32:32;;;;;;;6.53;5.03;;;42.00;1.00;;;;;;5032399;28;20212;-77
2023/06/16 12:34:58;;;;;;;7.38;4.75;;;41.20;1.00;;;;;;5036561;28;20635;-75
2023/06/16 12:37:28;;;;;;;7.60;4.95;;;40.40;1.00;;;;;;5045247;28;20215;-75
2023/06/16 12:39:57;;;;;;;13.32;5.25;;;41.10;1.00;;;;;;5044984;28;20197;-75
2023/06/16 12:42:30;;;;;;;8.70;5.25;;;41.20;1.00;;;;;;5042025;28;20188;-75
2023/06/16 12:45:02;;;;;;;6.80;5.28;;;40.60;1.00;;;;;;5033716;28;20264;-75
2023/06/16 12:47:29;;;;;;;5.70;4.85;;;40.40;1.00;;;;;;5042554;28;20193;-76
2023/06/16 12:49:56;;;;;;;8.18;5.50;;;40.50;1.00;;;;;;5032038;28;20683;-75
2023/06/16 12:52:23;;;;;;;7.95;5.47;;;40.80;1.00;;;;;;5032949;28;20185;-76
2023/06/16 12:54:50;;;;;;;6.57;5.03;;;41.20;1.00;;;;;;5036435;28;20188;-77
2023/06/16 12:57:15;;;;;;;6.93;5.68;;;40.70;1.00;;;;;;5033114;28;20209;-75
2023/06/16 12:59:41;;;;;;;6.85;5.25;;;39.60;1.00;;;;;;5038635;28;20234;-76
2023/06/16 13:02:07;;;;;;;9.90;5.57;;;39.40;1.00;;;;;;5046346;28;20235;-76
2023/06/16 13:04:33;;;;;;;5.88;5.28;;;38.20;1.00;;;;;;5043506;28;20193;-75
2023/06/16 13:06:59;;;;;;;7.65;5.13;;;;;;;;;;5034083;28;20188;-77